Time;durP1;ratioP1;P1;durP2;ratioP2;P2;SDS_P1;SDS_P2;PMS_P1;PMS_P2;Temp;Humidity;BMP_temperature;BMP_pressure;BME280_temperature;BME280_humidity;BME280_pressure;Samples;Min_cycle;Max_cycle;Signal;HPM_P1;HPM_P2
2023/06/05 00:00:31;;;;;;;4.10;1.50;;;;;;;15.79;36.58;99750.20;108294;1304;22264;-48
2023/06/05 00:02:56;;;;;;;3.80;1.10;;;;;;;15.78;36.56;99750.27;108281;1304;23315;-46
2023/06/05 00:05:25;;;;;;;4.60;1.20;;;;;;;15.76;36.68;99751.98;108293;1304;22399;-45
2023/06/05 00:07:51;;;;;;;5.30;1.30;;;;;;;15.74;36.58;99751.36;108313;1304;22251;-48
2023/06/05 00:10:16;;;;;;;2.30;1.20;;;;;;;15.71;36.32;99752.46;108300;1295;22236;-48
2023/06/05 00:12:42;;;;;;;1.20;0.90;;;;;;;15.70;36.52;99749.20;108306;1304;22454;-44
2023/06/05 00:15:08;;;;;;;3.90;0.80;;;;;;;15.70;36.84;99745.66;108315;1304;23096;-47
2023/06/05 00:17:33;;;;;;;1.80;1.00;;;;;;;15.69;36.85;99748.33;108307;1304;22415;-50
2023/06/05 00:19:59;;;;;;;1.70;0.90;;;;;;;15.68;36.67;99750.20;108313;1304;22481;-51
2023/06/05 00:22:27;;;;;;;1.80;1.10;;;;;;;15.67;36.53;99747.05;108307;1304;22294;-47
2023/06/05 00:24:53;;;;;;;2.40;1.10;;;;;;;15.66;36.64;99748.20;108319;1304;22239;-47
2023/06/05 00:27:19;;;;;;;3.40;1.30;;;;;;;15.64;36.74;99745.51;108300;1304;22249;-46
2023/06/05 00:29:44;;;;;;;2.00;1.30;;;;;;;15.62;36.43;99746.18;108308;1304;22250;-47
2023/06/05 00:32:10;;;;;;;1.80;1.30;;;;;;;15.60;36.36;99749.54;108316;1304;22214;-50
2023/06/05 00:34:35;;;;;;;2.50;1.30;;;;;;;15.58;36.48;99747.55;108319;1304;22496;-45
2023/06/05 00:37:00;;;;;;;4.70;1.10;;;;;;;15.55;36.54;99742.42;108338;1282;22224;-49
2023/06/05 00:39:25;;;;;;;3.90;1.00;;;;;;;15.53;36.61;99742.70;108304;1304;24266;-48
2023/06/05 00:41:51;;;;;;;2.40;1.30;;;;;;;15.54;36.77;99745.67;108326;1304;22418;-44
2023/06/05 00:44:18;;;;;;;1.10;0.90;;;;;;;15.52;36.82;99743.72;108306;1304;22192;-45
2023/06/05 00:46:43;;;;;;;1.30;1.20;;;;;;;15.51;37.08;99742.16;108322;1304;22500;-45
2023/06/05 00:49:10;;;;;;;4.50;1.40;;;;;;;15.49;37.16;99743.00;108295;1304;22228;-45
2023/06/05 00:51:35;;;;;;;1.80;1.30;;;;;;;15.47;37.22;99742.43;108322;1304;22236;-47
2023/06/05 00:54:03;;;;;;;2.20;1.30;;;;;;;15.44;37.41;99740.55;108304;1304;22211;-49
2023/06/05 00:56:28;;;;;;;2.00;1.10;;;;;;;15.40;37.38;99736.73;108290;1304;22398;-50
2023/06/05 00:58:54;;;;;;;3.70;1.10;;;;;;;15.38;37.21;99737.77;108299;1301;22274;-46
2023/06/05 01:01:20;;;;;;;2.10;1.00;;;;;;;15.35;37.82;99738.49;108300;1304;22247;-51
2023/06/05 01:03:47;;;;;;;2.70;1.20;;;;;;;15.32;37.72;99738.66;108324;1304;22250;-47
2023/06/05 01:06:12;;;;;;;3.20;1.20;;;;;;;15.30;37.84;99737.95;108288;1304;22234;-48
2023/06/05 01:08:41;;;;;;;2.10;1.30;;;;;;;15.26;37.72;99739.80;108323;1304;22353;-47
2023/06/05 01:11:28;;;;;;;3.50;1.20;;;;;;;15.23;37.73;99738.79;108339;1304;23096;-44
2023/06/05 01:14:07;;;;;;;;;;;;;;;15.20;37.62;99737.77;108317;1304;22462;-50
2023/06/05 01:16:34;;;;;;;3.10;1.10;;;;;;;15.16;37.30;99734.28;108313;1304;22392;-45
2023/06/05 01:19:03;;;;;;;2.50;0.80;;;;;;;15.15;37.46;99733.27;108329;1304;22228;-46
2023/06/05 01:21:31;;;;;;;4.50;1.20;;;;;;;15.13;37.45;99728.33;108318;1304;22238;-44
2023/06/05 01:23:58;;;;;;;2.90;1.00;;;;;;;15.11;37.59;99725.79;108344;1304;22409;-47
2023/06/05 01:26:33;;;;;;;2.60;1.20;;;;;;;15.09;37.82;99723.63;108323;1304;23120;-49
2023/06/05 01:29:01;;;;;;;1.60;1.10;;;;;;;15.08;37.62;99724.55;108317;1304;22219;-49
2023/06/05 01:31:28;;;;;;;3.70;1.30;;;;;;;15.06;37.51;99725.29;108312;1304;22422;-46
2023/06/05 01:34:01;;;;;;;2.50;1.40;;;;;;;15.04;37.70;99725.05;108331;1304;22268;-47
2023/06/05 01:36:28;;;;;;;1.40;1.20;;;;;;;15.03;37.64;99724.58;108309;1304;23043;-47
2023/06/05 01:38:54;;;;;;;4.00;1.30;;;;;;;15.01;37.96;99721.92;108317;1304;22522;-48
2023/06/05 01:41:20;;;;;;;2.00;1.30;;;;;;;14.98;37.66;99722.59;108328;1283;22455;-45
2023/06/05 01:43:50;;;;;;;3.20;1.30;;;;;;;14.95;38.30;99726.30;108312;1304;22270;-49
2023/06/05 01:46:18;;;;;;;3.90;1.50;;;;;;;14.93;38.88;99725.73;108309;1304;23174;-48
2023/06/05 01:48:44;;;;;;;1.20;1.00;;;;;;;14.91;38.57;99724.45;108305;1304;23341;-49
2023/06/05 01:51:10;;;;;;;3.00;1.40;;;;;;;14.87;38.53;99724.38;108327;1304;22940;-47
2023/06/05 01:53:35;;;;;;;2.20;1.10;;;;;;;14.87;38.03;99726.17;108303;1304;22235;-45
2023/06/05 01:56:02;;;;;;;3.20;1.40;;;;;;;14.85;38.48;99725.02;108318;1304;22247;-47
2023/06/05 01:58:27;;;;;;;1.60;1.30;;;;;;;14.84;38.53;99723.88;108323;1304;22239;-49
2023/06/05 02:00:56;;;;;;;3.10;1.30;;;;;;;14.83;38.41;99724.48;108329;1284;22314;-46
2023/06/05 02:03:22;;;;;;;2.00;1.20;;;;;;;14.81;37.89;99720.02;108315;1304;23132;-51
2023/06/05 02:05:48;;;;;;;1.50;1.10;;;;;;;14.78;38.53;99718.95;108318;1304;22235;-50
2023/06/05 02:08:19;;;;;;;6.60;1.20;;;;;;;14.77;38.76;99719.91;108298;1304;22222;-46
2023/06/05 02:10:48;;;;;;;2.30;1.20;;;;;;;14.75;38.84;99715.84;108325;1304;22497;-46
2023/06/05 02:13:19;;;;;;;4.30;1.20;;;;;;;14.73;39.12;99717.39;108297;1304;22432;-45
2023/06/05 02:15:45;;;;;;;3.60;1.50;;;;;;;14.70;38.90;99714.90;108318;1304;22246;-49
2023/06/05 02:18:10;;;;;;;1.30;1.10;;;;;;;14.67;39.33;99717.95;108309;1304;23167;-47
2023/06/05 02:20:35;;;;;;;2.80;0.90;;;;;;;14.65;39.33;99717.39;108317;1304;22461;-50
2023/06/05 02:23:02;;;;;;;3.50;1.40;;;;;;;14.61;39.76;99717.45;108326;1304;23251;-53
2023/06/05 02:25:28;;;;;;;2.20;1.20;;;;;;;14.57;39.90;99718.23;108309;1304;23732;-45
2023/06/05 02:27:54;;;;;;;3.00;1.20;;;;;;;14.51;39.57;99721.24;108320;1304;22262;-44
2023/06/05 02:30:20;;;;;;;3.80;1.20;;;;;;;14.47;39.93;99723.60;108314;1304;23123;-49
2023/06/05 02:32:46;;;;;;;5.10;1.40;;;;;;;14.45;40.78;99723.40;108308;1304;22401;-51
2023/06/05 02:35:12;;;;;;;1.20;1.10;;;;;;;14.43;40.73;99726.88;108310;1304;22221;-50
2023/06/05 02:37:43;;;;;;;3.50;1.40;;;;;;;14.40;40.82;99723.02;108311;1304;22405;-50
2023/06/05 02:40:09;;;;;;;4.20;1.50;;;;;;;14.38;40.71;99725.60;108330;1304;22228;-49
2023/06/05 02:43:44;;;;;;;14.40;1.50;;;;;;;14.40;40.91;99727.77;107062;1309;545765;-49
2023/06/05 02:46:10;;;;;;;4.10;1.40;;;;;;;14.36;41.46;99724.81;107438;1312;22323;-48
2023/06/05 02:48:36;;;;;;;5.40;1.40;;;;;;;14.34;41.26;99725.66;107452;1312;22289;-49
2023/06/05 02:51:02;;;;;;;5.50;1.40;;;;;;;14.32;41.65;99720.33;107449;1312;22520;-45
2023/06/05 02:53:28;;;;;;;4.20;1.50;;;;;;;14.29;41.56;99718.77;107554;1311;21790;-46
2023/06/05 02:55:55;;;;;;;5.20;1.50;;;;;;;14.27;42.10;99715.52;107548;1311;23161;-44
2023/06/05 02:58:21;;;;;;;1.70;1.20;;;;;;;14.25;42.14;99716.92;107649;1308;149478;-47
2023/06/05 03:00:47;;;;;;;3.10;1.30;;;;;;;14.24;42.24;99714.89;107781;1308;22212;-47
2023/06/05 03:03:13;;;;;;;8.00;1.80;;;;;;;14.23;42.56;99717.55;107785;1308;22416;-47
2023/06/05 03:05:40;;;;;;;7.10;1.30;;;;;;;14.23;43.09;99716.87;107934;1307;22661;-47
2023/06/05 03:08:06;;;;;;;5.50;1.50;;;;;;;14.24;43.76;99716.64;107961;1307;22228;-46
2023/06/05 03:10:32;;;;;;;8.50;1.70;;;;;;;14.22;43.92;99718.52;107948;1307;22248;-44
2023/06/05 03:12:57;;;;;;;6.70;1.80;;;;;;;14.18;43.64;99716.42;107951;1307;23237;-47
2023/06/05 03:15:23;;;;;;;3.00;1.70;;;;;;;14.18;43.24;99718.41;107958;1307;22205;-47
2023/06/05 03:17:48;;;;;;;7.20;1.60;;;;;;;14.16;43.88;99718.50;107932;1307;22311;-45
2023/06/05 03:20:14;;;;;;;5.40;1.50;;;;;;;14.16;43.88;99718.13;107909;1307;22455;-46
2023/06/05 03:22:39;;;;;;;4.10;1.60;;;;;;;14.15;44.53;99719.48;107955;1307;22261;-46
2023/06/05 03:25:05;;;;;;;7.70;1.50;;;;;;;14.14;44.28;99720.20;107923;1307;22864;-47
2023/06/05 03:27:31;;;;;;;6.50;1.50;;;;;;;14.14;45.48;99718.14;107930;1307;22234;-44
2023/06/05 03:29:58;;;;;;;3.60;1.70;;;;;;;14.15;46.07;99717.55;107937;1307;23016;-46
2023/06/05 03:32:24;;;;;;;9.60;1.60;;;;;;;14.14;45.46;99714.42;107929;1307;22305;-49
2023/06/05 03:34:50;;;;;;;4.20;1.50;;;;;;;14.14;46.55;99716.88;107946;1307;22428;-47
2023/06/05 03:37:15;;;;;;;4.10;1.60;;;;;;;14.16;47.12;99721.87;107947;1292;22416;-47
2023/06/05 03:39:40;;;;;;;8.40;1.80;;;;;;;14.17;47.15;99722.51;107943;1307;22911;-46
2023/06/05 03:42:11;;;;;;;3.60;1.50;;;;;;;14.17;47.63;99722.66;107934;1307;22956;-47
2023/06/05 03:44:37;;;;;;;6.00;1.70;;;;;;;14.19;47.55;99723.26;107936;1307;22998;-44
2023/06/05 03:47:03;;;;;;;7.40;2.00;;;;;;;14.21;48.29;99721.88;107938;1307;22784;-47
2023/06/05 03:49:28;;;;;;;5.00;1.70;;;;;;;14.23;48.05;99721.42;107937;1307;22309;-51
2023/06/05 03:52:00;;;;;;;4.20;1.80;;;;;;;14.25;46.94;99721.14;107944;1307;23321;-46
2023/06/05 03:54:27;;;;;;;4.30;1.80;;;;;;;14.26;47.04;99722.31;107919;1308;22272;-51
2023/06/05 03:56:55;;;;;;;4.60;1.50;;;;;;;14.29;47.74;99724.08;107874;1307;23159;-44
2023/06/05 03:59:22;;;;;;;7.40;2.10;;;;;;;14.31;47.66;99724.30;107891;1308;22455;-44
2023/06/05 04:01:48;;;;;;;7.90;1.70;;;;;;;14.33;48.12;99722.74;107907;1307;22417;-46
2023/06/05 04:04:14;;;;;;;3.60;2.20;;;;;;;14.36;47.10;99724.84;107897;1308;22422;-46
2023/06/05 04:06:40;;;;;;;5.80;2.70;;;;;;;14.40;47.43;99727.56;107890;1307;22283;-46
2023/06/05 04:09:11;;;;;;;9.60;3.50;;;;;;;14.43;46.92;99724.04;107903;1308;22228;-47
2023/06/05 04:11:42;;;;;;;5.60;2.90;;;;;;;14.46;47.15;99719.23;107805;1302;22466;-47
2023/06/05 04:14:08;;;;;;;6.80;2.70;;;;;;;14.49;47.42;99715.54;107784;1308;22433;-45
2023/06/05 04:16:34;;;;;;;14.20;3.00;;;;;;;14.52;47.53;99719.38;107787;1308;22416;-49
2023/06/05 04:19:00;;;;;;;12.20;2.80;;;;;;;14.56;47.92;99719.67;107799;1308;22416;-48
2023/06/05 04:21:26;;;;;;;3.10;2.50;;;;;;;14.60;47.02;99721.20;107818;1308;22224;-46
2023/06/05 04:23:52;;;;;;;11.20;2.60;;;;;;;14.65;46.53;99719.64;107816;1308;22400;-49
2023/06/05 04:26:18;;;;;;;6.80;2.30;;;;;;;14.69;46.34;99720.97;107806;1308;23127;-48
2023/06/05 04:28:45;;;;;;;3.10;2.10;;;;;;;14.74;46.31;99722.27;107811;1308;23365;-49
2023/06/05 04:31:10;;;;;;;6.00;2.00;;;;;;;14.78;45.36;99722.53;107824;1308;22264;-48
2023/06/05 04:33:36;;;;;;;9.90;2.50;;;;;;;14.82;46.03;99722.39;107801;1308;22407;-48
2023/06/05 04:36:01;;;;;;;15.60;3.00;;;;;;;14.87;46.62;99724.94;107807;1308;22620;-50
2023/06/05 04:38:27;;;;;;;8.70;1.90;;;;;;;14.91;45.85;99731.69;107804;1308;23086;-47
2023/06/05 04:40:53;;;;;;;9.80;3.20;;;;;;;14.96;45.13;99734.02;107795;1308;22233;-47
2023/06/05 04:43:18;;;;;;;5.70;2.30;;;;;;;15.00;44.01;99735.16;107782;1308;22366;-47
2023/06/05 04:45:43;;;;;;;3.60;1.90;;;;;;;15.07;43.87;99732.08;107780;1308;23138;-48
2023/06/05 04:48:09;;;;;;;3.40;2.00;;;;;;;15.13;43.51;99734.52;107782;1308;22391;-47
2023/06/05 04:50:35;;;;;;;3.80;2.40;;;;;;;15.18;43.69;99731.15;107806;1308;23007;-45
2023/06/05 04:53:01;;;;;;;5.10;2.20;;;;;;;15.21;42.91;99728.64;107800;1308;23125;-46
2023/06/05 04:55:27;;;;;;;10.20;2.20;;;;;;;15.25;42.40;99730.19;107817;1308;22231;-49
2023/06/05 04:57:53;;;;;;;29.00;3.40;;;;;;;15.30;42.86;99730.69;107800;1308;22954;-46
2023/06/05 05:00:19;;;;;;;23.30;2.80;;;;;;;15.33;43.25;99728.52;107814;1308;22266;-46
2023/06/05 05:02:45;;;;;;;22.10;3.10;;;;;;;15.37;43.18;99729.66;107820;1308;22221;-46
2023/06/05 05:05:13;;;;;;;18.70;3.10;;;;;;;15.41;42.26;99733.30;107807;1308;22369;-48
2023/06/05 05:07:42;;;;;;;11.50;2.30;;;;;;;15.46;42.98;99734.92;107832;1308;22247;-46
2023/06/05 05:10:09;;;;;;;11.70;2.90;;;;;;;15.51;42.30;99738.66;107824;1308;22434;-50
2023/06/05 05:12:35;;;;;;;9.00;1.80;;;;;;;15.57;42.61;99739.13;107831;1308;22438;-50
2023/06/05 05:15:01;;;;;;;10.00;1.90;;;;;;;15.61;41.54;99739.02;107815;1308;22235;-49
2023/06/05 05:17:26;;;;;;;7.90;1.80;;;;;;;15.66;41.20;99737.61;107786;1308;22246;-51
2023/06/05 05:19:51;;;;;;;8.60;2.30;;;;;;;15.72;41.64;99739.83;107792;1308;22234;-48
2023/06/05 05:22:17;;;;;;;8.00;1.60;;;;;;;15.77;41.56;99740.42;107820;1308;22220;-46
2023/06/05 05:24:42;;;;;;;7.00;1.60;;;;;;;15.81;41.13;99738.89;107790;1308;22225;-49
2023/06/05 05:27:08;;;;;;;7.20;2.10;;;;;;;15.86;41.43;99740.69;107834;1308;22220;-50
2023/06/05 05:29:33;;;;;;;11.90;1.80;;;;;;;15.91;41.19;99738.03;107803;1308;22238;-47
2023/06/05 05:31:58;;;;;;;9.60;1.90;;;;;;;15.97;40.69;99739.21;107769;1308;22433;-46
2023/06/05 05:34:24;;;;;;;10.00;1.80;;;;;;;16.03;40.58;99735.09;107839;1308;22233;-46
2023/06/05 05:36:49;;;;;;;8.10;1.20;;;;;;;16.07;40.58;99737.95;107809;1308;22221;-47
2023/06/05 05:39:15;;;;;;;6.30;1.90;;;;;;;16.11;40.26;99741.91;107803;1308;22404;-46
2023/06/05 05:41:41;;;;;;;10.00;1.40;;;;;;;16.17;40.06;99741.88;107810;1308;23295;-50
2023/06/05 05:44:06;;;;;;;10.60;2.30;;;;;;;16.22;40.26;99739.91;107812;1308;22248;-44
2023/06/05 05:46:32;;;;;;;12.20;1.70;;;;;;;16.27;39.75;99739.57;107817;1308;22458;-47
2023/06/05 05:48:57;;;;;;;8.10;1.50;;;;;;;16.33;39.94;99741.42;107784;1308;22329;-48
2023/06/05 05:51:23;;;;;;;6.80;1.60;;;;;;;16.38;39.58;99741.73;107811;1308;23021;-46
2023/06/05 05:53:48;;;;;;;8.50;2.20;;;;;;;16.44;39.66;99742.73;107800;1308;22231;-50
2023/06/05 05:56:14;;;;;;;7.60;1.80;;;;;;;16.52;39.21;99745.67;107886;1307;22458;-51
2023/06/05 05:58:39;;;;;;;5.60;1.50;;;;;;;16.61;39.33;99749.29;107907;1307;22496;-48
2023/06/05 06:01:04;;;;;;;11.70;1.60;;;;;;;16.68;39.52;99748.10;107898;1307;22412;-46
2023/06/05 06:03:30;;;;;;;11.70;2.10;;;;;;;16.73;39.26;99749.34;107891;1307;23118;-48
2023/06/05 06:05:57;;;;;;;7.70;1.90;;;;;;;16.78;39.23;99753.39;107910;1307;22384;-48
2023/06/05 06:08:22;;;;;;;6.60;2.10;;;;;;;16.83;39.14;99750.88;107905;1307;22241;-45
2023/06/05 06:10:47;;;;;;;18.80;2.20;;;;;;;16.89;38.93;99747.09;107909;1308;23113;-49
2023/06/05 06:13:13;;;;;;;16.30;2.10;;;;;;;16.95;38.85;99751.27;107898;1307;22260;-46
2023/06/05 06:15:39;;;;;;;5.40;1.60;;;;;;;17.00;38.71;99750.17;107915;1307;22262;-50
2023/06/05 06:18:05;;;;;;;12.10;1.70;;;;;;;17.07;38.63;99749.50;107899;1307;22275;-50
2023/06/05 06:20:31;;;;;;;8.10;1.40;;;;;;;17.13;38.31;99750.97;107917;1285;22221;-47
2023/06/05 06:22:57;;;;;;;5.60;1.40;;;;;;;17.20;38.09;99751.89;107928;1308;23012;-48
2023/06/05 06:25:25;;;;;;;4.30;1.30;;;;;;;17.25;38.16;99752.86;107929;1307;23192;-52
2023/06/05 06:27:53;;;;;;;6.50;1.40;;;;;;;17.31;38.04;99751.75;107932;1307;22407;-48
2023/06/05 06:30:19;;;;;;;3.10;1.30;;;;;;;17.37;37.52;99747.77;107944;1307;22226;-47
2023/06/05 06:32:45;;;;;;;11.20;2.00;;;;;;;17.43;37.56;99749.76;107885;1307;22212;-45
2023/06/05 06:35:11;;;;;;;7.60;1.60;;;;;;;17.49;37.45;99750.05;107911;1308;22429;-48
2023/06/05 06:37:37;;;;;;;4.00;1.40;;;;;;;17.56;36.97;99752.34;107905;1308;22863;-48
2023/06/05 06:40:06;;;;;;;3.30;1.10;;;;;;;17.63;37.18;99753.73;107879;1308;23104;-48
2023/06/05 06:42:32;;;;;;;6.30;1.10;;;;;;;17.70;37.24;99754.27;107890;1308;22488;-47
2023/06/05 06:44:57;;;;;;;4.30;1.70;;;;;;;17.78;37.04;99755.97;107904;1307;22199;-50
2023/06/05 06:47:24;;;;;;;13.70;1.50;;;;;;;17.84;36.53;99757.99;107901;1308;22853;-48
2023/06/05 06:49:49;;;;;;;10.50;1.90;;;;;;;17.90;36.33;99758.09;107909;1307;22273;-48
2023/06/05 06:52:16;;;;;;;3.90;1.50;;;;;;;17.97;36.38;99759.30;107896;1308;23176;-50
2023/06/05 06:54:41;;;;;;;4.60;1.30;;;;;;;18.03;35.95;99755.77;106979;1308;22512;-39
2023/06/05 06:57:08;;;;;;;1.90;1.10;;;;;;;18.10;36.10;99756.64;107031;1308;23029;-40
2023/06/05 06:59:33;;;;;;;5.30;1.50;;;;;;;18.15;36.15;99756.41;107290;1307;22237;-41
2023/06/05 07:02:11;;;;;;;6.20;1.40;;;;;;;18.20;36.31;99756.20;107533;1300;22594;-38
2023/06/05 07:04:36;;;;;;;9.40;1.40;;;;;;;18.26;35.78;99753.31;107317;1307;22560;-38
2023/06/05 07:07:03;;;;;;;13.70;1.80;;;;;;;18.31;35.64;99756.08;107425;1307;22566;-38
2023/06/05 07:09:28;;;;;;;14.30;1.90;;;;;;;18.36;35.45;99755.98;107998;1307;22187;-40
2023/06/05 07:11:54;;;;;;;3.30;1.00;;;;;;;18.41;35.55;99759.73;107920;1292;22238;-41
2023/06/05 07:14:19;;;;;;;1.40;0.90;;;;;;;18.49;35.34;99759.26;107470;1308;22274;-47
2023/06/05 07:16:45;;;;;;;2.40;1.00;;;;;;;18.58;34.58;99760.62;107280;1308;25415;-48
2023/06/05 07:19:10;;;;;;;2.40;1.10;;;;;;;18.66;34.87;99760.36;106748;1308;22577;-46
2023/06/05 07:21:37;;;;;;;5.70;1.00;;;;;;;18.74;34.70;99764.50;107883;1308;22344;-48
2023/06/05 07:24:04;;;;;;;1.90;1.10;;;;;;;18.80;34.66;99762.55;107873;1308;22277;-45
2023/06/05 07:26:29;;;;;;;2.90;1.50;;;;;;;18.87;34.00;99762.38;107324;1308;22110;-48
2023/06/05 07:28:54;;;;;;;2.50;1.10;;;;;;;18.92;34.23;99762.00;107436;1295;22546;-46
2023/06/05 07:31:21;;;;;;;63.30;2.80;;;;;;;18.99;33.69;99761.09;107663;1307;22275;-48
2023/06/05 07:33:47;;;;;;;6.50;1.10;;;;;;;19.04;33.54;99759.73;107772;1287;22590;-46
2023/06/05 07:36:14;;;;;;;6.20;1.20;;;;;;;19.11;33.77;99765.16;106897;1307;22567;-46
2023/06/05 07:38:39;;;;;;;5.20;1.10;;;;;;;19.16;33.20;99759.98;108040;1307;22424;-49
2023/06/05 07:41:06;;;;;;;0.80;0.80;;;;;;;19.21;33.13;99759.05;107917;1307;22911;-48
2023/06/05 07:43:31;;;;;;;7.00;1.00;;;;;;;19.27;33.59;99759.98;108044;1306;22223;-49
2023/06/05 07:45:56;;;;;;;2.90;1.00;;;;;;;19.34;32.96;99760.23;107998;1301;22266;-48
2023/06/05 07:48:22;;;;;;;4.20;0.80;;;;;;;19.43;32.60;99761.47;107689;1304;25376;-44
2023/06/05 07:50:48;;;;;;;2.90;1.20;;;;;;;19.53;32.49;99759.86;108005;1307;22329;-49
